Time;durP1;ratioP1;P1;durP2;ratioP2;P2;SDS_P1;SDS_P2;PMS_P1;PMS_P2;Temp;Humidity;BMP_temperature;BMP_pressure;BME280_temperature;BME280_humidity;BME280_pressure;Samples;Min_cycle;Max_cycle;Signal;HPM_P1;HPM_P2
2021/09/08 00:01:09;;;;;;;0.60;0.60;;;12.70;99.90;;;;;;5091027;28;20265;-75
2021/09/08 00:03:34;;;;;;;0.60;0.60;;;12.60;99.90;;;;;;5092006;28;20210;-75
2021/09/08 00:06:00;;;;;;;0.73;0.73;;;12.60;99.90;;;;;;5092353;28;20296;-75
2021/09/08 00:08:26;;;;;;;1.88;0.90;;;12.60;99.90;;;;;;5090967;28;20196;-75
2021/09/08 00:10:52;;;;;;;0.80;0.80;;;12.70;99.90;;;;;;5093650;28;20196;-75
2021/09/08 00:13:18;;;;;;;0.65;0.65;;;12.80;99.90;;;;;;5075524;28;20204;-75
2021/09/08 00:15:44;;;;;;;0.63;0.63;;;12.80;99.90;;;;;;5092044;28;20635;-75
2021/09/08 00:18:10;;;;;;;0.73;0.60;;;12.90;99.90;;;;;;5091043;28;20578;-75
2021/09/08 00:20:35;;;;;;;0.85;0.65;;;13.00;99.90;;;;;;5073533;28;20196;-76
2021/09/08 00:23:01;;;;;;;0.70;0.70;;;13.20;99.90;;;;;;5092165;28;20212;-75
2021/09/08 00:25:27;;;;;;;1.35;0.95;;;13.20;99.90;;;;;;5091803;28;20215;-75
2021/09/08 00:27:53;;;;;;;2.30;1.27;;;13.30;99.90;;;;;;5090730;28;20204;-76
2021/09/08 00:30:19;;;;;;;2.28;0.98;;;13.20;99.90;;;;;;5075161;28;20207;-75
2021/09/08 00:32:44;;;;;;;0.60;0.60;;;13.30;99.90;;;;;;5090793;28;20204;-75
2021/09/08 00:35:10;;;;;;;0.77;0.77;;;13.30;99.90;;;;;;5091030;28;20196;-75
2021/09/08 00:37:38;;;;;;;2.20;1.23;;;13.40;99.90;;;;;;5091578;28;20200;-76
2021/09/08 00:40:05;;;;;;;0.95;0.90;;;13.40;99.90;;;;;;5090975;28;20388;-75
2021/09/08 00:42:30;;;;;;;0.90;0.85;;;13.50;99.90;;;;;;5090606;28;20200;-75
2021/09/08 00:44:56;;;;;;;0.60;0.60;;;13.60;99.90;;;;;;5090698;28;20208;-75
2021/09/08 00:47:22;;;;;;;0.68;0.68;;;13.50;99.90;;;;;;5073766;28;20200;-75
2021/09/08 00:49:47;;;;;;;0.60;0.60;;;13.70;99.90;;;;;;5091911;28;20751;-75
2021/09/08 00:52:15;;;;;;;0.60;0.60;;;13.80;99.90;;;;;;5075815;28;20236;-75
2021/09/08 00:54:48;;;;;;;0.75;0.75;;;13.80;99.90;;;;;;5096044;28;20200;-75
2021/09/08 00:57:15;;;;;;;0.80;0.80;;;13.80;99.90;;;;;;5078070;28;20193;-75
2021/09/08 00:59:43;;;;;;;0.50;0.50;;;13.90;99.90;;;;;;5060330;28;20205;-75
2021/09/08 01:02:09;;;;;;;0.60;0.60;;;13.90;99.90;;;;;;5094235;28;20608;-73
2021/09/08 01:04:35;;;;;;;1.45;1.35;;;13.90;99.90;;;;;;5095096;28;20200;-73
2021/09/08 01:07:05;;;;;;;2.08;0.77;;;13.90;99.90;;;;;;5078667;28;20204;-72
2021/09/08 01:09:31;;;;;;;0.82;0.82;;;13.90;99.90;;;;;;5095135;28;20196;-73
2021/09/08 01:11:59;;;;;;;0.75;0.75;;;14.00;99.90;;;;;;5078412;28;20204;-72
2021/09/08 01:14:25;;;;;;;0.88;0.88;;;14.10;99.90;;;;;;5095405;28;20295;-72
2021/09/08 01:16:53;;;;;;;0.50;0.50;;;14.10;99.90;;;;;;5094410;28;20689;-73
2021/09/08 01:19:18;;;;;;;0.80;0.80;;;14.10;99.90;;;;;;5077117;28;20200;-73
2021/09/08 01:21:44;;;;;;;10.77;1.63;;;14.10;99.90;;;;;;5094682;28;20212;-73
2021/09/08 01:24:10;;;;;;;0.50;0.50;;;14.10;99.90;;;;;;5094306;28;20204;-72
2021/09/08 01:26:41;;;;;;;0.93;0.93;;;14.20;99.90;;;;;;5078261;28;20253;-72
2021/09/08 01:29:08;;;;;;;0.75;0.75;;;14.10;99.90;;;;;;5077159;28;20233;-72
2021/09/08 01:31:34;;;;;;;1.17;1.08;;;14.10;99.90;;;;;;5076787;28;20673;-73
2021/09/08 01:34:00;;;;;;;0.60;0.60;;;14.10;99.90;;;;;;5094050;28;20236;-72
2021/09/08 01:36:26;;;;;;;0.85;0.85;;;14.20;99.90;;;;;;5093924;28;20292;-73
2021/09/08 01:38:52;;;;;;;0.50;0.50;;;14.20;99.90;;;;;;5078182;28;20278;-72
2021/09/08 01:41:17;;;;;;;1.50;1.13;;;14.20;99.90;;;;;;5076820;28;20231;-73
2021/09/08 01:43:47;;;;;;;0.57;0.57;;;14.30;99.90;;;;;;5093762;28;20238;-73
2021/09/08 01:46:23;;;;;;;0.65;0.65;;;14.20;99.90;;;;;;5075502;28;20231;-72
2021/09/08 01:48:49;;;;;;;1.48;1.38;;;14.20;99.90;;;;;;5076966;28;20196;-72
2021/09/08 01:51:16;;;;;;;1.02;0.73;;;14.20;99.90;;;;;;5075461;28;20286;-72
2021/09/08 01:53:42;;;;;;;0.80;0.80;;;14.30;99.90;;;;;;5093437;28;20205;-72
2021/09/08 01:56:08;;;;;;;0.65;0.65;;;14.40;99.90;;;;;;5077055;28;20279;-72
2021/09/08 01:58:34;;;;;;;2.85;1.17;;;14.40;99.90;;;;;;5093768;28;20204;-73
2021/09/08 02:01:00;;;;;;;1.05;0.90;;;14.40;99.90;;;;;;5091786;28;20196;-75
2021/09/08 02:03:26;;;;;;;0.57;0.57;;;14.40;99.90;;;;;;5089745;28;20207;-75
2021/09/08 02:05:51;;;;;;;1.02;0.80;;;14.40;99.90;;;;;;5093729;28;20256;-72
2021/09/08 02:08:17;;;;;;;0.75;0.75;;;14.40;99.90;;;;;;5093667;28;20204;-73
2021/09/08 02:10:43;;;;;;;2.92;1.27;;;14.40;99.90;;;;;;5093176;28;20196;-72
2021/09/08 02:13:09;;;;;;;0.95;0.95;;;14.40;99.90;;;;;;5077780;28;20235;-72
2021/09/08 02:15:34;;;;;;;1.73;1.45;;;14.50;99.90;;;;;;5076236;28;20215;-72
2021/09/08 02:18:00;;;;;;;0.75;0.75;;;14.50;99.90;;;;;;5075389;28;20211;-73
2021/09/08 02:20:26;;;;;;;1.33;1.23;;;14.50;99.90;;;;;;5094144;28;20206;-72
2021/09/08 02:22:52;;;;;;;2.30;1.35;;;14.60;99.90;;;;;;5092985;28;20291;-72
2021/09/08 02:25:18;;;;;;;0.98;0.95;;;14.60;99.90;;;;;;5094459;28;20211;-73
2021/09/08 02:27:43;;;;;;;0.50;0.50;;;14.60;99.90;;;;;;5077854;28;20200;-72
2021/09/08 02:30:10;;;;;;;5.78;1.77;;;14.60;99.90;;;;;;5076283;28;20200;-72
2021/09/08 02:32:36;;;;;;;0.40;0.40;;;14.70;99.90;;;;;;5092837;28;20698;-73
2021/09/08 02:35:03;;;;;;;0.55;0.55;;;14.70;99.90;;;;;;5093071;28;20199;-72
2021/09/08 02:37:29;;;;;;;0.70;0.70;;;14.70;99.90;;;;;;5074653;28;20236;-72
2021/09/08 02:39:55;;;;;;;0.70;0.70;;;14.70;99.90;;;;;;5075924;28;20200;-72
2021/09/08 02:42:20;;;;;;;0.80;0.80;;;14.70;99.90;;;;;;5074506;28;20207;-72
2021/09/08 02:44:46;;;;;;;1.00;0.90;;;14.70;99.90;;;;;;5074653;28;20195;-71
2021/09/08 02:47:13;;;;;;;2.35;2.15;;;14.70;99.90;;;;;;5076176;28;20208;-72
2021/09/08 02:49:38;;;;;;;2.15;0.98;;;14.80;99.90;;;;;;5076480;28;20211;-73
2021/09/08 02:52:04;;;;;;;1.65;1.13;;;14.80;99.90;;;;;;5093344;28;20216;-73
2021/09/08 02:54:30;;;;;;;1.00;0.90;;;14.80;99.90;;;;;;5075489;28;20230;-72
2021/09/08 02:56:55;;;;;;;1.02;0.98;;;14.80;99.90;;;;;;5092669;28;20212;-73
2021/09/08 02:59:21;;;;;;;0.60;0.60;;;14.90;99.90;;;;;;5094973;28;20207;-73
2021/09/08 03:01:47;;;;;;;0.60;0.60;;;14.90;99.90;;;;;;5091739;28;20273;-73
2021/09/08 03:04:12;;;;;;;0.50;0.50;;;14.90;99.90;;;;;;5074563;28;20295;-72
2021/09/08 03:06:38;;;;;;;1.30;1.20;;;14.90;99.90;;;;;;5093541;28;20259;-72
2021/09/08 03:09:04;;;;;;;0.63;0.63;;;14.90;99.90;;;;;;5092488;28;20204;-73
2021/09/08 03:11:30;;;;;;;7.15;1.38;;;14.90;99.90;;;;;;5075522;28;20283;-72
2021/09/08 03:13:56;;;;;;;0.70;0.70;;;14.90;99.90;;;;;;5094463;28;20208;-72
2021/09/08 03:16:22;;;;;;;1.20;1.10;;;15.00;99.90;;;;;;5076660;28;20208;-72
2021/09/08 03:18:48;;;;;;;1.17;1.08;;;15.00;99.90;;;;;;5093210;28;20278;-72
2021/09/08 03:21:14;;;;;;;7.40;1.00;;;15.00;99.90;;;;;;5092441;28;20549;-72
2021/09/08 03:23:39;;;;;;;0.70;0.70;;;15.00;99.90;;;;;;5093446;28;20219;-73
2021/09/08 03:26:05;;;;;;;3.75;1.00;;;15.00;99.90;;;;;;5092080;28;20258;-72
2021/09/08 03:28:31;;;;;;;0.85;0.85;;;15.00;99.90;;;;;;5075063;28;20253;-73
2021/09/08 03:30:56;;;;;;;0.45;0.45;;;15.00;99.90;;;;;;5074110;28;20659;-73
2021/09/08 03:33:22;;;;;;;2.08;1.05;;;15.00;99.90;;;;;;5093461;28;20206;-72
2021/09/08 03:35:48;;;;;;;0.50;0.50;;;15.00;99.90;;;;;;5093550;28;20236;-74
2021/09/08 03:38:14;;;;;;;1.35;1.25;;;15.00;99.90;;;;;;5076009;28;20215;-73
2021/09/08 03:40:39;;;;;;;0.60;0.60;;;15.10;99.90;;;;;;5092832;28;20748;-72
2021/09/08 03:43:05;;;;;;;0.95;0.90;;;15.10;99.90;;;;;;5093239;28;20215;-72
2021/09/08 03:45:31;;;;;;;0.50;0.50;;;15.10;99.90;;;;;;5091477;28;20204;-72
2021/09/08 03:47:57;;;;;;;0.73;0.73;;;15.10;99.90;;;;;;5074683;28;20248;-72
2021/09/08 03:50:22;;;;;;;1.17;1.08;;;15.10;99.90;;;;;;5075634;28;20212;-72
2021/09/08 03:52:50;;;;;;;0.77;0.77;;;15.10;99.90;;;;;;5092927;28;20681;-72
2021/09/08 03:55:16;;;;;;;0.70;0.70;;;15.10;99.90;;;;;;5074735;28;20211;-72
2021/09/08 03:57:42;;;;;;;1.98;1.38;;;15.00;99.90;;;;;;5087609;28;20219;-72
2021/09/08 04:00:09;;;;;;;1.33;1.23;;;15.00;99.90;;;;;;5080155;28;20291;-71
2021/09/08 04:02:35;;;;;;;2.95;1.60;;;15.00;99.90;;;;;;5073821;28;20208;-72
2021/09/08 04:05:01;;;;;;;1.00;0.75;;;14.90;99.90;;;;;;5092434;28;20220;-73
2021/09/08 04:07:27;;;;;;;0.57;0.57;;;15.00;99.90;;;;;;5074151;28;20282;-73
2021/09/08 04:09:53;;;;;;;1.00;1.00;;;14.90;99.90;;;;;;5092685;28;20283;-72
2021/09/08 04:12:19;;;;;;;0.60;0.60;;;14.90;99.90;;;;;;5092447;28;20609;-73
2021/09/08 04:14:44;;;;;;;0.77;0.65;;;14.90;99.90;;;;;;5092452;28;20199;-73
2021/09/08 04:17:10;;;;;;;1.02;0.98;;;15.00;99.90;;;;;;5076061;28;20227;-72
2021/09/08 04:19:36;;;;;;;1.00;0.93;;;15.00;99.90;;;;;;5092582;28;20242;-73
2021/09/08 04:22:02;;;;;;;0.45;0.45;;;14.90;99.90;;;;;;5092231;28;20200;-73
2021/09/08 04:24:27;;;;;;;1.42;1.33;;;14.80;99.90;;;;;;5092222;28;20196;-73
2021/09/08 04:26:53;;;;;;;0.70;0.70;;;14.80;99.90;;;;;;5090419;28;20208;-72
2021/09/08 04:29:19;;;;;;;5.13;0.70;;;14.70;99.90;;;;;;5093322;28;20196;-73
2021/09/08 04:31:44;;;;;;;0.73;0.73;;;14.60;99.90;;;;;;5092170;28;20204;-73
2021/09/08 04:34:10;;;;;;;0.75;0.75;;;14.60;99.90;;;;;;5092068;28;20203;-73
2021/09/08 04:36:36;;;;;;;9.52;2.17;;;14.60;99.90;;;;;;5093080;28;20253;-72
2021/09/08 04:39:02;;;;;;;0.82;0.82;;;14.50;99.90;;;;;;5093887;28;20237;-72
2021/09/08 04:41:28;;;;;;;0.85;0.85;;;14.60;99.90;;;;;;5090491;28;20208;-72
2021/09/08 04:43:54;;;;;;;0.50;0.50;;;14.50;99.90;;;;;;5090792;28;20215;-73
2021/09/08 04:46:20;;;;;;;0.45;0.45;;;14.50;99.90;;;;;;5090575;28;20769;-74
2021/09/08 04:48:45;;;;;;;1.20;1.10;;;14.60;99.90;;;;;;5091039;28;20223;-73
2021/09/08 04:51:11;;;;;;;17.63;0.90;;;14.70;99.90;;;;;;5090671;28;20215;-72
2021/09/08 04:53:37;;;;;;;0.77;0.77;;;14.70;99.90;;;;;;5091797;28;20203;-73
2021/09/08 04:56:03;;;;;;;0.55;0.55;;;14.70;99.90;;;;;;5091006;28;20207;-73
2021/09/08 04:58:28;;;;;;;2.67;0.80;;;14.80;99.90;;;;;;5090444;28;20748;-73
2021/09/08 05:00:54;;;;;;;0.60;0.60;;;14.80;99.90;;;;;;5091932;28;20211;-73
2021/09/08 05:03:19;;;;;;;1.67;1.25;;;14.90;99.90;;;;;;5092064;28;20238;-74
2021/09/08 05:05:45;;;;;;;0.77;0.77;;;14.90;99.90;;;;;;5090364;28;20220;-72
2021/09/08 05:08:11;;;;;;;1.77;1.30;;;15.00;99.90;;;;;;5090587;28;20271;-73
2021/09/08 05:10:37;;;;;;;0.68;0.68;;;15.00;99.90;;;;;;5090392;28;20200;-72
2021/09/08 05:13:02;;;;;;;0.70;0.70;;;15.00;99.90;;;;;;5072369;28;20632;-72
2021/09/08 05:15:28;;;;;;;0.55;0.55;;;15.00;99.90;;;;;;5090337;28;20213;-73
2021/09/08 05:17:54;;;;;;;20.25;1.58;;;15.00;99.90;;;;;;5072540;28;20208;-73
2021/09/08 05:20:20;;;;;;;0.50;0.50;;;15.00;99.90;;;;;;5090520;28;20613;-73
2021/09/08 05:22:45;;;;;;;0.77;0.77;;;15.10;99.90;;;;;;5091215;28;20774;-72
2021/09/08 05:25:11;;;;;;;1.23;0.80;;;15.10;99.90;;;;;;5091309;28;20207;-72
2021/09/08 05:27:37;;;;;;;0.50;0.50;;;15.10;99.90;;;;;;5090274;28;20201;-73
2021/09/08 05:30:04;;;;;;;0.50;0.50;;;15.20;99.90;;;;;;5091786;28;20667;-72
2021/09/08 05:32:30;;;;;;;0.50;0.50;;;15.20;99.90;;;;;;5072942;28;20196;-73
2021/09/08 05:34:56;;;;;;;0.52;0.52;;;15.30;99.90;;;;;;5073498;28;20604;-72
2021/09/08 05:37:23;;;;;;;1.30;1.20;;;15.30;99.90;;;;;;5092220;28;20196;-73
2021/09/08 05:39:49;;;;;;;1.27;0.80;;;15.40;99.90;;;;;;5094326;28;20266;-72
2021/09/08 05:42:14;;;;;;;0.88;0.88;;;15.40;99.90;;;;;;5094410;28;20200;-72
2021/09/08 05:44:40;;;;;;;0.63;0.63;;;15.50;99.90;;;;;;5093679;28;20674;-73
2021/09/08 05:47:06;;;;;;;4.90;1.67;;;15.50;99.90;;;;;;5095126;28;20204;-72
2021/09/08 05:49:31;;;;;;;1.13;0.93;;;15.50;99.90;;;;;;5095152;28;20247;-72
2021/09/08 05:51:57;;;;;;;0.98;0.82;;;15.60;99.90;;;;;;5096373;28;20207;-72
2021/09/08 05:54:23;;;;;;;0.95;0.95;;;15.60;99.90;;;;;;5094512;28;20553;-72
2021/09/08 05:56:48;;;;;;;0.55;0.55;;;15.70;99.90;;;;;;5095835;28;20291;-72
2021/09/08 05:59:14;;;;;;;1.00;0.80;;;15.90;99.90;;;;;;5091542;28;20710;-72
2021/09/08 06:01:40;;;;;;;0.93;0.93;;;15.90;99.90;;;;;;5094887;28;20655;-72
2021/09/08 06:04:05;;;;;;;0.45;0.45;;;16.00;99.90;;;;;;5093898;28;20275;-72
2021/09/08 06:06:31;;;;;;;1.58;1.40;;;16.10;99.90;;;;;;5093286;28;20251;-72
2021/09/08 06:08:57;;;;;;;0.68;0.68;;;16.20;99.90;;;;;;5093610;28;20566;-73
2021/09/08 06:11:23;;;;;;;3.10;1.17;;;16.30;99.90;;;;;;5075784;28;20199;-73
2021/09/08 06:13:48;;;;;;;0.50;0.50;;;16.50;99.90;;;;;;5091767;28;20210;-74
2021/09/08 06:16:14;;;;;;;0.70;0.70;;;16.50;99.90;;;;;;5094926;28;20203;-73
2021/09/08 06:18:40;;;;;;;0.70;0.70;;;16.60;99.90;;;;;;5094217;28;20219;-72
2021/09/08 06:21:06;;;;;;;1.75;1.65;;;16.70;99.90;;;;;;5094723;28;20647;-72
2021/09/08 06:23:31;;;;;;;0.52;0.52;;;16.70;99.90;;;;;;5075840;28;20208;-72
2021/09/08 06:25:57;;;;;;;0.60;0.60;;;16.80;99.90;;;;;;5093012;28;20204;-72
2021/09/08 06:28:23;;;;;;;1.20;1.05;;;16.90;99.90;;;;;;5076199;28;20200;-73
2021/09/08 06:30:50;;;;;;;0.40;0.40;;;16.90;99.90;;;;;;5094492;28;20280;-73
2021/09/08 06:33:16;;;;;;;0.80;0.80;;;17.00;99.90;;;;;;5093149;28;20211;-72
2021/09/08 06:38:17;;;;;;;0.80;0.80;;;17.30;99.90;;;;;;1066937;22;21220;-75
2021/09/08 06:40:43;;;;;;;1.30;1.20;;;17.50;99.90;;;;;;5053970;28;20205;-76
2021/09/08 06:43:08;;;;;;;0.40;0.40;;;17.70;99.90;;;;;;5055070;28;20205;-76
2021/09/08 06:45:34;;;;;;;3.80;1.23;;;17.80;99.90;;;;;;5052494;28;20205;-75
2021/09/08 06:48:00;;;;;;;0.47;0.47;;;17.70;99.90;;;;;;5052010;28;20201;-77
2021/09/08 06:50:26;;;;;;;0.40;0.40;;;17.70;99.90;;;;;;5051992;28;20398;-76
2021/09/08 06:52:52;;;;;;;0.40;0.40;;;18.00;99.90;;;;;;5034554;28;20202;-78
2021/09/08 06:55:18;;;;;;;0.40;0.40;;;18.10;99.90;;;;;;5036009;28;20228;-76
2021/09/08 06:57:43;;;;;;;0.50;0.50;;;18.00;99.90;;;;;;5053471;28;20209;-76
2021/09/08 07:00:10;;;;;;;2.63;0.50;;;17.90;99.90;;;;;;5053760;28;20256;-76
2021/09/08 07:02:35;;;;;;;0.60;0.60;;;17.80;99.90;;;;;;5053297;28;20193;-76
2021/09/08 07:05:01;;;;;;;0.70;0.70;;;17.80;99.90;;;;;;5051031;28;20197;-75
2021/09/08 07:07:27;;;;;;;0.75;0.75;;;17.80;99.90;;;;;;5053587;28;20205;-75
2021/09/08 07:09:52;;;;;;;0.50;0.50;;;18.00;99.90;;;;;;5053783;28;20243;-76
2021/09/08 07:12:18;;;;;;;0.40;0.40;;;18.30;99.90;;;;;;5052211;28;20710;-74
2021/09/08 07:14:44;;;;;;;1.20;0.80;;;18.60;99.90;;;;;;5052144;28;20205;-76
2021/09/08 07:17:09;;;;;;;0.52;0.52;;;18.80;99.90;;;;;;5035505;28;20212;-77
2021/09/08 07:19:35;;;;;;;0.50;0.50;;;18.80;99.90;;;;;;5053142;28;20251;-77
2021/09/08 07:22:01;;;;;;;0.30;0.30;;;18.90;99.90;;;;;;5033712;28;20224;-74
2021/09/08 07:24:26;;;;;;;0.50;0.50;;;19.00;99.90;;;;;;5051573;28;20279;-73
2021/09/08 07:26:56;;;;;;;0.38;0.38;;;18.90;99.90;;;;;;5053131;28;20206;-73
2021/09/08 07:29:22;;;;;;;0.40;0.40;;;18.90;99.90;;;;;;5052825;28;20203;-73
2021/09/08 07:31:48;;;;;;;1.42;0.47;;;18.90;99.90;;;;;;5054445;28;20644;-73
2021/09/08 07:34:14;;;;;;;1.95;0.95;;;19.00;99.90;;;;;;5051728;28;20232;-72
2021/09/08 07:36:39;;;;;;;0.50;0.50;;;19.00;99.90;;;;;;5051684;28;20247;-74
2021/09/08 07:39:05;;;;;;;0.45;0.45;;;19.30;99.90;;;;;;5051751;28;20225;-74
2021/09/08 07:41:31;;;;;;;1.35;0.75;;;19.50;99.90;;;;;;5052626;28;20677;-73
2021/09/08 07:43:57;;;;;;;0.70;0.70;;;19.70;99.90;;;;;;5034888;28;20209;-73
2021/09/08 07:46:22;;;;;;;0.52;0.52;;;19.70;99.90;;;;;;5052506;28;20210;-73
2021/09/08 07:48:48;;;;;;;0.43;0.43;;;19.70;99.90;;;;;;5033477;28;20198;-72
2021/09/08 07:51:14;;;;;;;0.30;0.30;;;19.70;99.90;;;;;;5051474;28;20209;-72
2021/09/08 07:53:40;;;;;;;0.60;0.60;;;19.70;99.90;;;;;;5033458;28;20209;-76
2021/09/08 07:56:05;;;;;;;0.35;0.35;;;19.80;99.90;;;;;;5052845;28;20669;-75
2021/09/08 07:58:31;;;;;;;0.68;0.68;;;19.90;99.90;;;;;;5033643;28;20236;-76
2021/09/08 08:00:57;;;;;;;0.70;0.52;;;20.10;99.90;;;;;;5052173;28;20215;-73
2021/09/08 08:03:23;;;;;;;0.50;0.50;;;20.30;99.90;;;;;;5052228;28;20201;-74
2021/09/08 08:05:48;;;;;;;0.30;0.30;;;20.60;99.90;;;;;;5052345;28;20774;-73
2021/09/08 08:08:14;;;;;;;0.30;0.30;;;20.80;99.90;;;;;;5051674;28;20246;-74
2021/09/08 08:10:41;;;;;;;0.93;0.90;;;20.90;99.90;;;;;;5052165;28;20300;-73
2021/09/08 08:13:06;;;;;;;0.28;0.28;;;21.10;99.90;;;;;;5051090;28;20617;-74
2021/09/08 08:15:33;;;;;;;0.30;0.30;;;21.30;99.90;;;;;;5053109;28;20251;-73
2021/09/08 08:17:59;;;;;;;0.40;0.40;;;21.30;99.90;;;;;;5051122;28;20216;-73
2021/09/08 08:20:25;;;;;;;0.40;0.40;;;21.50;99.90;;;;;;5050800;28;20703;-73
2021/09/08 08:22:51;;;;;;;0.20;0.20;;;21.70;99.90;;;;;;5052077;28;20217;-73
2021/09/08 08:25:20;;;;;;;0.32;0.32;;;21.70;99.90;;;;;;5034356;28;20296;-73
2021/09/08 08:27:47;;;;;;;0.65;0.50;;;21.60;99.90;;;;;;5032992;28;20672;-73
2021/09/08 08:30:15;;;;;;;0.20;0.20;;;21.20;99.90;;;;;;5033047;28;20198;-73
2021/09/08 08:32:41;;;;;;;0.30;0.30;;;21.20;99.90;;;;;;5032754;28;20690;-73
2021/09/08 08:35:08;;;;;;;0.85;0.50;;;21.40;99.90;;;;;;5034399;28;20570;-73
2021/09/08 08:37:34;;;;;;;0.30;0.30;;;21.70;99.90;;;;;;5049699;28;20202;-74
2021/09/08 08:40:02;;;;;;;0.52;0.52;;;22.10;99.90;;;;;;5051276;28;20818;-73
2021/09/08 08:42:30;;;;;;;1.17;0.52;;;22.40;99.90;;;;;;5033352;28;20292;-73
2021/09/08 08:44:56;;;;;;;0.70;0.70;;;22.50;99.90;;;;;;5049258;28;20590;-75
2021/09/08 08:47:22;;;;;;;0.25;0.25;;;22.60;99.90;;;;;;5050923;28;20667;-73
2021/09/08 08:49:49;;;;;;;0.20;0.20;;;22.70;99.90;;;;;;5051726;28;20250;-75
2021/09/08 08:52:15;;;;;;;0.30;0.30;;;22.60;99.90;;;;;;5033497;28;20621;-75
2021/09/08 08:54:41;;;;;;;0.30;0.30;;;22.70;99.90;;;;;;5049813;28;20656;-74
2021/09/08 08:57:13;;;;;;;0.20;0.20;;;23.00;99.90;;;;;;5032094;28;20211;-75
2021/09/08 08:59:40;;;;;;;0.32;0.32;;;23.30;99.90;;;;;;5051085;28;20241;-76
2021/09/08 09:02:28;;;;;;;0.30;0.30;;;23.50;99.90;;;;;;5031954;28;20205;-75
2021/09/08 09:04:57;;;;;;;0.20;0.20;;;23.60;99.90;;;;;;5052285;28;20216;-76
2021/09/08 09:07:28;;;;;;;0.30;0.30;;;23.70;99.90;;;;;;5033071;28;20271;-76
2021/09/08 09:10:01;;;;;;;2.47;0.30;;;23.80;99.90;;;;;;5033390;28;20582;-76
2021/09/08 09:12:35;;;;;;;1.02;0.50;;;23.50;99.90;;;;;;5034751;28;20729;-76
2021/09/08 09:15:05;;;;;;;0.20;0.20;;;23.60;99.90;;;;;;5037065;28;20204;-76
2021/09/08 09:17:34;;;;;;;0.20;0.20;;;23.80;99.90;;;;;;5054760;28;20571;-74
2021/09/08 09:20:10;;;;;;;0.30;0.30;;;24.00;99.90;;;;;;5036946;28;20259;-75
2021/09/08 09:22:44;;;;;;;0.47;0.32;;;24.30;99.90;;;;;;5053154;28;20205;-74
2021/09/08 09:25:14;;;;;;;0.30;0.30;;;24.00;99.90;;;;;;5036771;28;20305;-76
2021/09/08 09:27:54;;;;;;;0.30;0.30;;;24.00;99.90;;;;;;5053278;28;20252;-76
2021/09/08 09:30:23;;;;;;;0.22;0.22;;;24.20;99.90;;;;;;5054642;28;20229;-76
2021/09/08 09:32:50;;;;;;;0.20;0.20;;;24.60;99.90;;;;;;5035460;28;20281;-76
2021/09/08 09:35:20;;;;;;;0.57;0.35;;;24.90;99.90;;;;;;5053397;28;20201;-75
2021/09/08 09:37:48;;;;;;;0.40;0.30;;;24.50;99.90;;;;;;5052435;28;20209;-75
2021/09/08 09:40:15;;;;;;;0.40;0.40;;;24.20;99.90;;;;;;5047141;28;20256;-76
2021/09/08 09:42:43;;;;;;;0.20;0.20;;;24.20;99.90;;;;;;5045621;28;20228;-75
2021/09/08 09:45:10;;;;;;;0.10;0.10;;;24.30;99.90;;;;;;5036410;28;20271;-75
2021/09/08 09:47:38;;;;;;;1.17;0.82;;;24.50;99.90;;;;;;5033105;28;20280;-76
2021/09/08 09:50:06;;;;;;;0.10;0.10;;;24.60;99.90;;;;;;5051447;28;20201;-76
2021/09/08 09:52:33;;;;;;;0.20;0.20;;;24.70;99.90;;;;;;5052484;28;20672;-75
2021/09/08 09:54:59;;;;;;;0.20;0.20;;;25.00;99.90;;;;;;5051967;28;20193;-76
2021/09/08 09:57:26;;;;;;;0.10;0.10;;;25.20;99.90;;;;;;5035545;28;20219;-75
2021/09/08 09:59:53;;;;;;;0.10;0.10;;;25.20;99.90;;;;;;5035415;28;20275;-76
2021/09/08 10:02:20;;;;;;;0.10;0.10;;;25.50;99.90;;;;;;5051677;28;20231;-75
2021/09/08 10:04:48;;;;;;;0.10;0.10;;;25.90;99.90;;;;;;5052815;28;20591;-76
2021/09/08 10:07:18;;;;;;;0.20;0.20;;;26.10;99.90;;;;;;5018531;28;20217;-75
2021/09/08 10:09:49;;;;;;;0.20;0.20;;;26.00;99.90;;;;;;5035111;28;20194;-77
2021/09/08 10:12:19;;;;;;;2.28;0.30;;;25.80;99.90;;;;;;5034255;28;20205;-76
2021/09/08 10:14:45;;;;;;;0.20;0.20;;;26.20;99.90;;;;;;5051027;28;20283;-78
2021/09/08 10:17:11;;;;;;;0.20;0.20;;;26.40;99.90;;;;;;5035061;28;20212;-77
2021/09/08 10:19:40;;;;;;;0.28;0.28;;;26.40;99.90;;;;;;5053141;28;20332;-75
2021/09/08 10:22:11;;;;;;;0.20;0.20;;;26.40;99.90;;;;;;5052393;28;20300;-75
2021/09/08 10:24:46;;;;;;;0.43;0.43;;;26.30;99.90;;;;;;5053583;28;20707;-75
2021/09/08 10:27:28;;;;;;;0.10;0.10;;;26.50;99.90;;;;;;5053873;28;20306;-73
2021/09/08 10:29:54;;;;;;;0.63;0.60;;;26.40;99.90;;;;;;5054052;28;20219;-74
2021/09/08 10:32:22;;;;;;;0.10;0.10;;;26.40;99.90;;;;;;5052568;28;20739;-76
2021/09/08 10:34:49;;;;;;;0.20;0.20;;;26.40;99.90;;;;;;5036109;28;20237;-74
2021/09/08 10:37:16;;;;;;;0.20;0.20;;;26.30;99.90;;;;;;5034474;28;20228;-79
2021/09/08 10:39:42;;;;;;;0.20;0.20;;;26.20;99.90;;;;;;5030547;28;20229;-79
2021/09/08 10:42:08;;;;;;;0.10;0.10;;;26.00;99.90;;;;;;5033717;28;20225;-80
2021/09/08 10:44:52;;;;;;;0.57;0.28;;;26.10;99.90;;;;;;5030868;28;20268;-79
2021/09/08 10:47:37;;;;;;;0.10;0.10;;;26.20;99.90;;;;;;5034718;28;20218;-81
2021/09/08 10:50:05;;;;;;;0.10;0.10;;;26.60;99.90;;;;;;5022052;28;20195;-77
2021/09/08 10:52:36;;;;;;;0.38;0.38;;;26.50;99.90;;;;;;5064610;28;20675;-77
2021/09/08 10:55:02;;;;;;;0.30;0.30;;;26.80;99.90;;;;;;5032668;28;20202;-77
2021/09/08 10:57:49;;;;;;;0.13;0.13;;;27.10;99.90;;;;;;5030982;28;20251;-77
2021/09/08 11:00:22;;;;;;;0.20;0.20;;;27.40;99.90;;;;;;5032756;28;20309;-77
2021/09/08 11:02:48;;;;;;;0.13;0.13;;;27.30;99.90;;;;;;5031340;28;20225;-74
2021/09/08 11:05:14;;;;;;;0.10;0.10;;;26.90;99.90;;;;;;5032012;28;20253;-77
2021/09/08 11:07:41;;;;;;;0.10;0.10;;;26.50;99.90;;;;;;5033344;28;20206;-75
2021/09/08 11:10:08;;;;;;;0.20;0.20;;;26.70;99.90;;;;;;5033053;28;20336;-80
2021/09/08 11:12:48;;;;;;;0.20;0.20;;;26.60;99.90;;;;;;5031733;28;20206;-80
2021/09/08 11:15:14;;;;;;;0.10;0.10;;;26.90;99.90;;;;;;5029501;28;20214;-77
2021/09/08 11:17:40;;;;;;;0.20;0.20;;;27.00;99.90;;;;;;5031012;28;20209;-78
2021/09/08 11:20:08;;;;;;;0.47;0.30;;;26.60;99.90;;;;;;5032837;28;20355;-80
2021/09/08 11:22:35;;;;;;;1.02;0.63;;;26.80;99.90;;;;;;5033182;28;20205;-79
2021/09/08 11:25:11;;;;;;;0.63;0.30;;;26.90;99.90;;;;;;5032181;28;20669;-78
2021/09/08 11:27:39;;;;;;;0.20;0.20;;;27.10;99.90;;;;;;5031452;28;20212;-79
2021/09/08 11:30:08;;;;;;;0.20;0.20;;;27.30;99.90;;;;;;5030893;28;20244;-78
2021/09/08 11:32:52;;;;;;;0.20;0.20;;;27.10;99.90;;;;;;5030972;28;20198;-77
2021/09/08 11:35:50;;;;;;;0.10;0.10;;;27.00;99.90;;;;;;5029304;28;20703;-81
2021/09/08 11:38:21;;;;;;;0.13;0.13;;;26.80;99.90;;;;;;5033368;28;20269;-80
2021/09/08 11:40:49;;;;;;;0.22;0.22;;;27.00;99.90;;;;;;5052642;28;20209;-78
2021/09/08 11:44:02;;;;;;;0.20;0.20;;;27.30;99.90;;;;;;5051169;28;20529;-84
2021/09/08 11:46:33;;;;;;;0.10;0.10;;;27.60;99.90;;;;;;5037466;28;20225;-78
2021/09/08 11:49:08;;;;;;;0.30;0.30;;;27.60;99.90;;;;;;5033621;28;20205;-80
2021/09/08 11:51:36;;;;;;;0.10;0.10;;;27.60;99.90;;;;;;5051456;28;20208;-78
2021/09/08 11:54:04;;;;;;;0.45;0.45;;;27.40;99.90;;;;;;5034280;28;20295;-77
2021/09/08 11:56:31;;;;;;;0.10;0.10;;;27.10;99.90;;;;;;5053910;28;20690;-80
2021/09/08 11:59:02;;;;;;;0.30;0.30;;;26.20;99.90;;;;;;5032956;28;20753;-80
2021/09/08 12:01:39;;;;;;;0.15;0.15;;;26.40;99.90;;;;;;5051287;28;20201;-83
2021/09/08 12:04:06;;;;;;;0.10;0.10;;;26.70;99.90;;;;;;5032314;28;20204;-79
2021/09/08 12:06:34;;;;;;;0.10;0.10;;;26.80;99.90;;;;;;5032840;28;20205;-77
2021/09/08 12:09:00;;;;;;;0.13;0.13;;;26.70;99.90;;;;;;5050500;28;20209;-77
2021/09/08 12:11:45;;;;;;;0.10;0.10;;;26.90;99.90;;;;;;5050637;28;20203;-77
2021/09/08 12:14:32;;;;;;;0.20;0.20;;;26.90;99.90;;;;;;5032587;28;20209;-78
2021/09/08 12:17:00;;;;;;;0.50;0.38;;;26.60;99.90;;;;;;5034360;28;20212;-79
2021/09/08 12:19:33;;;;;;;0.10;0.10;;;26.50;99.90;;;;;;5050314;28;20663;-78
2021/09/08 12:22:22;;;;;;;0.20;0.20;;;26.70;99.90;;;;;;5051905;28;20200;-76
2021/09/08 12:25:03;;;;;;;0.10;0.10;;;26.70;99.90;;;;;;5034638;28;20201;-78
2021/09/08 12:27:47;;;;;;;0.10;0.10;;;26.90;99.90;;;;;;5032884;28;20209;-77
2021/09/08 12:30:18;;;;;;;0.10;0.10;;;26.90;99.90;;;;;;5049938;28;20193;-78
2021/09/08 12:32:57;;;;;;;0.10;0.10;;;26.70;99.60;;;;;;5031776;28;20197;-79
2021/09/08 12:35:53;;;;;;;0.10;0.10;;;26.60;99.80;;;;;;5051468;28;20212;-77
2021/09/08 12:38:23;;;;;;;0.13;0.13;;;26.60;99.80;;;;;;5036520;28;20292;-79
2021/09/08 12:41:11;;;;;;;0.10;0.10;;;27.00;99.80;;;;;;5034046;28;20234;-77
2021/09/08 12:43:39;;;;;;;0.10;0.10;;;26.90;99.90;;;;;;5039661;28;20592;-74
2021/09/08 12:46:04;;;;;;;0.20;0.20;;;26.80;98.30;;;;;;5032312;28;20205;-78
2021/09/08 12:48:30;;;;;;;0.10;0.10;;;26.60;99.20;;;;;;5054133;28;20559;-77
2021/09/08 12:50:57;;;;;;;0.10;0.10;;;26.50;99.90;;;;;;5054262;28;20182;-76